Time;durP1;ratioP1;P1;durP2;ratioP2;P2;SDS_P1;SDS_P2;PMS_P1;PMS_P2;Temp;Humidity;BMP_temperature;BMP_pressure;BME280_temperature;BME280_humidity;BME280_pressure;Samples;Min_cycle;Max_cycle;Signal;HPM_P1;HPM_P2
2022/09/24 00:00:52;;;;;;;38.53;30.98;;;13.60;99.90;;;;;;5074119;28;20558;-61
2022/09/24 00:03:19;;;;;;;42.45;34.97;;;13.60;99.90;;;;;;5073861;28;20039;-60
2022/09/24 00:05:46;;;;;;;45.47;35.03;;;13.70;99.90;;;;;;5074091;28;20471;-60
2022/09/24 00:08:13;;;;;;;53.13;39.53;;;13.70;99.90;;;;;;5092522;28;20481;-61
2022/09/24 00:10:42;;;;;;;46.55;34.72;;;13.70;99.90;;;;;;5091720;28;20036;-60
2022/09/24 00:13:12;;;;;;;45.05;34.63;;;13.70;99.90;;;;;;5092039;28;20403;-60
2022/09/24 00:15:40;;;;;;;48.90;32.83;;;13.70;99.90;;;;;;5092572;28;20496;-60
2022/09/24 00:18:06;;;;;;;43.53;33.10;;;13.70;99.90;;;;;;5073227;28;20131;-60
2022/09/24 00:20:33;;;;;;;43.55;33.58;;;13.80;99.90;;;;;;5074451;28;20048;-61
2022/09/24 00:23:00;;;;;;;44.13;34.20;;;13.80;99.90;;;;;;5091859;28;20070;-61
2022/09/24 00:28:12;;;;;;;51.53;36.53;;;13.80;99.90;;;;;;5092542;28;20373;-60
2022/09/24 00:30:39;;;;;;;41.10;32.17;;;13.80;99.90;;;;;;5092268;28;20039;-61
2022/09/24 00:33:05;;;;;;;41.40;33.08;;;13.80;99.90;;;;;;5073028;28;20040;-61
2022/09/24 00:35:32;;;;;;;49.45;36.75;;;13.80;99.90;;;;;;5092819;28;20040;-60
2022/09/24 00:37:58;;;;;;;44.30;32.70;;;13.80;99.90;;;;;;5096042;28;20075;-61
2022/09/24 00:40:32;;;;;;;37.85;31.25;;;13.80;99.90;;;;;;5095756;28;20072;-60
2022/09/24 00:42:58;;;;;;;48.75;36.50;;;13.90;99.90;;;;;;5095829;28;20035;-60
2022/09/24 00:45:25;;;;;;;50.30;37.42;;;13.80;99.90;;;;;;5077756;28;20087;-61
2022/09/24 00:47:52;;;;;;;53.92;37.33;;;13.80;99.90;;;;;;5078024;28;20473;-60
2022/09/24 00:50:33;;;;;;;45.47;32.95;;;13.90;99.90;;;;;;5078269;28;20044;-61
2022/09/24 00:53:08;;;;;;;47.78;36.45;;;13.90;99.90;;;;;;5094801;28;20040;-60
2022/09/24 00:55:35;;;;;;;46.60;35.60;;;13.90;99.90;;;;;;5078056;28;20098;-60
2022/09/24 00:58:05;;;;;;;48.65;35.83;;;13.90;99.90;;;;;;5095484;28;20476;-61
2022/09/24 01:00:31;;;;;;;46.45;34.30;;;13.90;99.90;;;;;;5077327;28;20499;-61
2022/09/24 01:03:17;;;;;;;44.45;32.58;;;13.90;99.90;;;;;;5095647;28;20028;-61
2022/09/24 01:05:43;;;;;;;54.78;36.85;;;13.90;99.90;;;;;;5061561;28;20044;-60
2022/09/24 01:08:13;;;;;;;50.65;36.58;;;13.90;99.90;;;;;;5076268;28;20036;-60
2022/09/24 01:11:21;;;;;;;48.65;35.95;;;13.90;99.90;;;;;;5078211;28;20427;-60
2022/09/24 01:14:09;;;;;;;43.65;33.92;;;13.90;99.90;;;;;;5094624;28;20054;-60
2022/09/24 01:17:05;;;;;;;43.50;34.42;;;13.90;99.90;;;;;;5096093;28;20035;-61
2022/09/24 01:19:43;;;;;;;50.25;34.70;;;13.90;99.90;;;;;;5077848;28;20403;-61
2022/09/24 01:22:37;;;;;;;56.65;39.63;;;13.90;99.90;;;;;;5076105;28;20040;-61
2022/09/24 01:25:09;;;;;;;45.20;34.15;;;14.00;99.90;;;;;;5077429;28;20124;-61
2022/09/24 01:27:51;;;;;;;46.95;35.33;;;13.90;99.90;;;;;;5060182;28;20040;-61
2022/09/24 01:30:18;;;;;;;55.92;40.65;;;14.00;99.90;;;;;;5095986;28;20123;-60
2022/09/24 01:33:00;;;;;;;48.85;35.00;;;13.90;99.90;;;;;;5095621;28;20484;-60
2022/09/24 01:35:33;;;;;;;52.33;36.92;;;13.90;99.90;;;;;;5076674;28;20044;-60
2022/09/24 01:38:21;;;;;;;55.72;38.67;;;13.90;99.90;;;;;;5095030;28;20043;-60
2022/09/24 01:40:49;;;;;;;47.83;34.30;;;13.90;99.90;;;;;;5095095;28;20110;-60
2022/09/24 01:43:17;;;;;;;44.47;32.85;;;14.00;99.90;;;;;;5076610;28;20500;-60
2022/09/24 01:45:43;;;;;;;42.47;32.78;;;13.90;99.90;;;;;;5077193;28;20071;-60
2022/09/24 01:48:09;;;;;;;34.80;25.75;;;14.00;99.90;;;;;;5075623;28;20501;-60
2022/09/24 01:50:44;;;;;;;34.28;26.38;;;14.00;99.90;;;;;;5094261;28;20059;-60
2022/09/24 01:53:20;;;;;;;27.52;21.88;;;14.00;99.90;;;;;;5095102;28;20507;-60
2022/09/24 01:55:51;;;;;;;29.70;21.27;;;14.00;99.90;;;;;;5093921;28;20492;-61
2022/09/24 01:58:28;;;;;;;26.27;19.02;;;14.10;99.90;;;;;;5076949;28;20039;-60
2022/09/24 02:01:01;;;;;;;23.85;16.02;;;14.10;99.90;;;;;;5076477;28;20044;-60
2022/09/24 02:03:33;;;;;;;17.52;13.38;;;14.10;99.90;;;;;;5094252;28;20036;-60
2022/09/24 02:06:04;;;;;;;15.85;10.95;;;14.10;99.90;;;;;;5076152;28;20028;-60
2022/09/24 02:08:43;;;;;;;14.07;8.88;;;14.20;99.90;;;;;;5076950;28;20169;-60
2022/09/24 02:11:20;;;;;;;14.32;8.55;;;14.10;99.90;;;;;;5075703;28;20366;-60
2022/09/24 02:14:12;;;;;;;12.38;7.80;;;14.20;99.90;;;;;;5076208;28;20122;-60
2022/09/24 02:16:45;;;;;;;12.80;6.18;;;14.20;99.90;;;;;;5076457;28;20479;-60
2022/09/24 02:19:14;;;;;;;14.98;5.55;;;14.20;99.90;;;;;;5076710;28;20384;-60
2022/09/24 02:21:43;;;;;;;8.68;4.50;;;14.20;99.90;;;;;;5094792;28;20036;-60
2022/09/24 02:24:17;;;;;;;10.60;5.00;;;14.20;99.90;;;;;;5093149;28;20052;-60
2022/09/24 02:26:44;;;;;;;9.90;3.40;;;14.20;99.90;;;;;;5094647;28;20123;-60
2022/09/24 02:29:10;;;;;;;10.77;3.35;;;14.20;99.90;;;;;;5076052;28;20036;-60
2022/09/24 02:31:46;;;;;;;10.43;3.65;;;14.20;99.90;;;;;;5093874;28;20036;-60
2022/09/24 02:34:22;;;;;;;8.88;3.33;;;14.20;99.90;;;;;;5094635;28;20047;-60
2022/09/24 02:36:51;;;;;;;8.18;3.22;;;14.20;99.90;;;;;;5075648;28;20134;-60
2022/09/24 02:39:18;;;;;;;7.93;2.60;;;14.20;99.90;;;;;;5075243;28;20040;-60
2022/09/24 02:41:48;;;;;;;8.43;2.55;;;14.20;99.90;;;;;;5094107;28;20477;-60
2022/09/24 02:44:15;;;;;;;9.05;3.10;;;14.20;99.90;;;;;;5076020;28;20047;-60
2022/09/24 02:46:42;;;;;;;13.02;2.83;;;14.20;99.90;;;;;;5093569;28;20397;-60
2022/09/24 02:49:09;;;;;;;10.48;3.17;;;14.20;99.90;;;;;;5075432;28;20040;-60
2022/09/24 02:51:35;;;;;;;12.27;2.88;;;14.20;99.90;;;;;;5075956;28;20040;-60
2022/09/24 02:54:01;;;;;;;10.98;3.13;;;14.20;99.90;;;;;;5092541;28;20494;-60
2022/09/24 02:56:30;;;;;;;10.43;2.80;;;14.20;99.90;;;;;;5093906;28;20485;-60
2022/09/24 02:58:56;;;;;;;11.43;3.40;;;14.20;99.90;;;;;;5092703;28;20036;-60
2022/09/24 03:01:23;;;;;;;10.50;2.80;;;14.20;99.90;;;;;;5075681;28;20040;-60
2022/09/24 03:03:49;;;;;;;10.85;2.97;;;14.20;99.90;;;;;;5075155;28;20048;-61
2022/09/24 03:06:15;;;;;;;8.75;2.83;;;14.20;99.90;;;;;;5093065;28;20495;-61
2022/09/24 03:08:41;;;;;;;7.85;2.80;;;14.20;99.90;;;;;;5093685;28;20036;-60
2022/09/24 03:11:11;;;;;;;10.43;2.78;;;14.20;99.90;;;;;;5074841;28;20097;-60
2022/09/24 03:13:37;;;;;;;17.75;2.95;;;14.20;99.90;;;;;;5093003;28;20090;-60
2022/09/24 03:16:05;;;;;;;12.65;2.65;;;14.20;99.90;;;;;;5093256;28;20084;-60
2022/09/24 03:18:31;;;;;;;6.05;2.30;;;14.10;99.90;;;;;;5075468;28;20040;-60
2022/09/24 03:21:03;;;;;;;7.03;2.50;;;14.10;99.90;;;;;;5092143;28;20039;-60
2022/09/24 03:23:29;;;;;;;6.80;2.55;;;14.10;99.90;;;;;;5093077;28;20048;-60
2022/09/24 03:25:55;;;;;;;8.75;2.42;;;14.10;99.90;;;;;;5093004;28;20101;-60
2022/09/24 03:28:21;;;;;;;8.48;2.20;;;14.10;99.90;;;;;;5074306;28;20032;-60
2022/09/24 03:30:59;;;;;;;8.55;2.40;;;14.10;99.90;;;;;;5092831;28;20039;-60
2022/09/24 03:33:42;;;;;;;9.48;3.38;;;14.00;99.90;;;;;;5093234;28;20044;-60
2022/09/24 03:36:21;;;;;;;11.57;2.53;;;14.00;99.90;;;;;;5073572;28;20044;-60
2022/09/24 03:38:48;;;;;;;8.70;2.05;;;14.00;99.90;;;;;;5074630;28;20039;-60
2022/09/24 03:41:15;;;;;;;9.02;2.42;;;14.00;99.90;;;;;;5074156;28;20042;-60
2022/09/24 03:43:41;;;;;;;12.15;2.25;;;14.00;99.90;;;;;;5075192;28;20040;-60
2022/09/24 03:46:08;;;;;;;7.43;2.42;;;14.00;99.90;;;;;;5092413;28;20039;-60
2022/09/24 03:48:38;;;;;;;7.60;2.45;;;13.90;99.90;;;;;;5091974;28;20040;-60
2022/09/24 03:51:06;;;;;;;8.00;2.22;;;13.90;99.90;;;;;;5074428;28;20608;-60
2022/09/24 03:53:32;;;;;;;10.75;2.38;;;13.90;99.90;;;;;;5074774;28;20047;-60
2022/09/24 03:56:01;;;;;;;7.63;2.20;;;13.90;99.90;;;;;;5073323;28;20040;-60
2022/09/24 03:58:28;;;;;;;4.70;1.80;;;13.90;99.90;;;;;;5092869;28;20058;-60
2022/09/24 04:00:54;;;;;;;11.57;2.30;;;13.90;99.90;;;;;;5092195;28;20477;-60
2022/09/24 04:03:21;;;;;;;8.55;2.67;;;13.90;99.90;;;;;;5092199;28;20107;-60
2022/09/24 04:05:50;;;;;;;11.88;2.30;;;13.90;99.90;;;;;;5057531;28;20469;-60
2022/09/24 04:08:20;;;;;;;6.93;2.15;;;13.90;99.90;;;;;;5074741;28;20075;-60
2022/09/24 04:10:47;;;;;;;8.93;2.13;;;13.90;99.90;;;;;;5091329;28;20055;-60
2022/09/24 04:13:14;;;;;;;6.55;1.75;;;13.80;99.90;;;;;;5092864;28;20430;-60
2022/09/24 04:15:40;;;;;;;7.65;2.60;;;13.80;99.90;;;;;;5074390;28;20047;-60
2022/09/24 04:18:06;;;;;;;9.95;2.30;;;13.80;99.90;;;;;;5091221;28;20492;-60
2022/09/24 04:20:33;;;;;;;10.57;2.22;;;13.80;99.90;;;;;;5092553;28;20036;-60
2022/09/24 04:23:00;;;;;;;7.40;2.17;;;13.70;99.90;;;;;;5073837;28;20079;-60
2022/09/24 04:25:29;;;;;;;9.55;1.92;;;13.70;99.90;;;;;;5073662;28;20055;-60
2022/09/24 04:27:57;;;;;;;7.18;2.20;;;13.70;99.90;;;;;;5073777;28;20391;-60
2022/09/24 04:30:24;;;;;;;6.20;1.80;;;13.60;99.90;;;;;;5091702;28;20396;-60
2022/09/24 04:32:50;;;;;;;6.95;1.92;;;13.50;99.90;;;;;;5091681;28;20044;-60
2022/09/24 04:35:18;;;;;;;10.60;2.63;;;13.50;99.90;;;;;;5092482;28;20123;-60
2022/09/24 04:37:44;;;;;;;9.52;1.70;;;13.50;99.90;;;;;;5073501;28;20051;-60
2022/09/24 04:40:11;;;;;;;9.43;2.72;;;13.40;99.90;;;;;;5091910;28;20050;-60
2022/09/24 04:42:41;;;;;;;10.13;2.70;;;13.40;99.90;;;;;;5092158;28;20435;-60
2022/09/24 04:45:08;;;;;;;8.27;1.88;;;13.30;99.90;;;;;;5090976;28;20073;-61
2022/09/24 04:47:35;;;;;;;6.93;1.98;;;13.30;99.90;;;;;;5074458;28;20054;-60
2022/09/24 04:50:03;;;;;;;5.80;1.88;;;13.30;99.90;;;;;;5073612;28;20512;-60
2022/09/24 04:52:32;;;;;;;9.95;2.00;;;13.20;99.90;;;;;;5091330;28;20040;-60
2022/09/24 04:55:01;;;;;;;7.82;1.58;;;13.20;99.90;;;;;;5056675;28;20036;-60
2022/09/24 04:57:28;;;;;;;7.95;1.70;;;13.20;99.90;;;;;;5092115;28;20044;-60
2022/09/24 04:59:54;;;;;;;8.93;2.65;;;13.20;99.90;;;;;;5072830;28;20439;-60
2022/09/24 05:02:20;;;;;;;6.85;2.08;;;13.20;99.90;;;;;;5092171;28;20435;-60
2022/09/24 05:04:46;;;;;;;4.80;1.40;;;13.20;99.90;;;;;;5073678;28;20092;-60
2022/09/24 05:07:12;;;;;;;9.90;1.85;;;13.20;99.90;;;;;;5091254;28;20497;-60
2022/09/24 05:09:37;;;;;;;5.70;1.35;;;13.20;99.90;;;;;;5074155;28;20047;-60
2022/09/24 05:12:04;;;;;;;4.78;1.27;;;13.30;99.90;;;;;;5073514;28;20484;-60
2022/09/24 05:14:30;;;;;;;9.48;2.17;;;13.30;99.90;;;;;;5091260;28;20047;-60
2022/09/24 05:16:55;;;;;;;7.35;1.65;;;13.40;99.90;;;;;;5066069;28;20077;-60
2022/09/24 05:19:21;;;;;;;5.10;1.75;;;13.40;99.90;;;;;;5052746;28;20082;-60
2022/09/24 05:21:47;;;;;;;7.05;1.67;;;13.40;99.90;;;;;;5069183;28;20043;-60
2022/09/24 05:24:13;;;;;;;5.90;1.80;;;13.40;99.90;;;;;;5054719;28;20052;-60
2022/09/24 05:29:23;;;;;;;4.80;1.33;;;13.50;99.90;;;;;;5072251;28;20093;-60
2022/09/24 05:31:49;;;;;;;6.47;1.63;;;13.50;99.90;;;;;;5055250;28;20045;-60
2022/09/24 05:34:15;;;;;;;6.28;1.38;;;13.50;99.90;;;;;;5071801;28;20041;-60
2022/09/24 05:36:42;;;;;;;13.07;2.47;;;13.50;99.90;;;;;;5072508;28;20044;-60
2022/09/24 05:39:10;;;;;;;6.88;1.50;;;13.50;99.90;;;;;;5053920;28;20036;-60
2022/09/24 05:41:36;;;;;;;6.47;1.92;;;13.60;99.90;;;;;;5071445;28;20044;-60
2022/09/24 05:44:02;;;;;;;6.13;1.98;;;13.60;99.90;;;;;;5069858;28;20496;-60
2022/09/24 05:46:28;;;;;;;5.55;1.35;;;13.60;99.90;;;;;;5066383;28;20039;-60
2022/09/24 05:48:54;;;;;;;6.30;1.60;;;13.60;99.90;;;;;;5091393;28;20476;-60
2022/09/24 05:51:20;;;;;;;7.20;1.80;;;13.60;99.90;;;;;;5082042;28;20412;-60
2022/09/24 05:53:47;;;;;;;10.35;1.98;;;13.60;99.90;;;;;;5071501;28;20052;-60
2022/09/24 05:56:13;;;;;;;13.45;2.85;;;13.60;99.90;;;;;;5071627;28;20401;-60
2022/09/24 05:58:38;;;;;;;7.50;1.83;;;13.60;99.90;;;;;;5053973;28;20040;-60
2022/09/24 06:01:04;;;;;;;7.68;1.70;;;13.70;99.90;;;;;;5071567;28;20155;-60
2022/09/24 06:03:30;;;;;;;5.70;1.77;;;13.70;99.90;;;;;;5053318;28;20474;-60
2022/09/24 06:06:01;;;;;;;7.63;1.60;;;13.70;99.90;;;;;;5070965;28;20131;-60
2022/09/24 06:08:29;;;;;;;6.63;1.55;;;13.80;99.90;;;;;;5053952;28;20045;-60
2022/09/24 06:10:59;;;;;;;5.03;1.50;;;13.80;99.90;;;;;;5054057;28;20131;-60
2022/09/24 06:13:25;;;;;;;11.25;1.92;;;13.80;99.90;;;;;;5053842;28;20054;-60
2022/09/24 06:15:51;;;;;;;9.38;2.30;;;13.80;99.90;;;;;;5053137;28;20045;-61
2022/09/24 06:18:17;;;;;;;8.75;2.28;;;13.80;99.90;;;;;;5053384;28;20047;-60
2022/09/24 06:20:43;;;;;;;4.57;1.65;;;13.80;99.90;;;;;;5071523;28;20462;-60
2022/09/24 06:23:09;;;;;;;8.68;2.35;;;13.80;99.90;;;;;;5052302;28;20049;-61
2022/09/24 06:25:35;;;;;;;5.38;1.80;;;13.80;99.90;;;;;;5053449;28;20080;-60
2022/09/24 06:28:03;;;;;;;5.75;1.30;;;13.80;99.90;;;;;;5070890;28;20122;-61
2022/09/24 06:30:40;;;;;;;7.63;1.85;;;13.90;99.90;;;;;;5070410;28;20090;-60
2022/09/24 06:33:10;;;;;;;12.52;1.88;;;13.90;99.90;;;;;;5070499;28;20394;-61
2022/09/24 06:35:38;;;;;;;6.53;1.90;;;13.90;99.90;;;;;;5057969;28;20044;-60
2022/09/24 06:38:05;;;;;;;7.93;1.85;;;13.90;99.90;;;;;;5072250;28;20036;-60
2022/09/24 06:40:31;;;;;;;11.35;2.22;;;14.00;99.90;;;;;;5073179;28;20075;-61
2022/09/24 06:42:57;;;;;;;9.65;2.33;;;14.00;99.90;;;;;;5089209;28;20480;-61
2022/09/24 06:45:24;;;;;;;10.60;2.35;;;14.00;99.90;;;;;;5090587;28;20053;-61
2022/09/24 06:47:58;;;;;;;8.55;1.73;;;14.00;99.90;;;;;;5090738;28;20051;-61
2022/09/24 06:50:27;;;;;;;8.57;2.75;;;14.00;99.90;;;;;;5072509;28;20054;-60
2022/09/24 06:52:53;;;;;;;6.93;1.77;;;14.10;99.90;;;;;;5089517;28;20495;-60
2022/09/24 06:55:18;;;;;;;8.48;2.38;;;14.10;99.90;;;;;;5071326;28;20040;-61
2022/09/24 06:57:44;;;;;;;10.43;2.53;;;14.10;99.90;;;;;;5091225;28;20036;-61
2022/09/24 07:00:12;;;;;;;9.30;1.90;;;14.20;99.90;;;;;;5090124;28;20047;-61
2022/09/24 07:02:38;;;;;;;5.93;1.20;;;14.30;99.90;;;;;;5091180;28;20043;-61
2022/09/24 07:05:04;;;;;;;9.40;2.00;;;14.30;99.90;;;;;;5068159;28;20036;-61
2022/09/24 07:07:31;;;;;;;7.43;2.30;;;14.40;99.90;;;;;;5069228;28;20120;-61
2022/09/24 07:09:59;;;;;;;7.22;1.85;;;14.50;99.90;;;;;;5068921;28;20055;-60
2022/09/24 07:12:25;;;;;;;7.78;2.00;;;14.50;99.90;;;;;;5069069;28;20401;-61
2022/09/24 07:14:50;;;;;;;6.80;2.05;;;14.50;99.90;;;;;;5036411;28;20036;-60
2022/09/24 07:17:16;;;;;;;10.52;1.83;;;14.50;99.90;;;;;;5072430;28;20113;-60
2022/09/24 07:19:42;;;;;;;9.82;2.03;;;14.60;99.90;;;;;;5071648;28;20047;-60
2022/09/24 07:22:08;;;;;;;9.27;2.05;;;14.60;99.90;;;;;;5089997;28;20028;-61
2022/09/24 07:24:33;;;;;;;7.88;1.48;;;14.60;99.90;;;;;;5090468;28;20507;-60
2022/09/24 07:26:59;;;;;;;12.15;2.38;;;14.60;99.90;;;;;;5089256;28;20567;-60
2022/09/24 07:29:25;;;;;;;6.68;2.35;;;14.70;99.90;;;;;;5071676;28;20044;-60
2022/09/24 07:31:50;;;;;;;8.10;2.15;;;14.70;99.90;;;;;;5069828;28;20494;-60
2022/09/24 07:34:16;;;;;;;11.40;2.00;;;14.70;99.90;;;;;;5074125;28;20417;-60
2022/09/24 07:36:42;;;;;;;9.10;2.00;;;14.80;99.90;;;;;;5056500;28;20398;-60
2022/09/24 07:39:08;;;;;;;8.23;2.47;;;14.80;99.90;;;;;;5102237;28;20461;-60
2022/09/24 07:41:34;;;;;;;6.50;2.40;;;14.80;99.90;;;;;;5091259;28;20044;-60
2022/09/24 07:44:00;;;;;;;4.05;1.30;;;14.80;99.90;;;;;;5084503;28;20032;-60
2022/09/24 07:46:26;;;;;;;7.57;1.98;;;14.80;99.90;;;;;;5095614;28;20031;-60
2022/09/24 07:48:55;;;;;;;10.52;2.80;;;14.80;99.90;;;;;;5070853;28;20066;-61
2022/09/24 07:51:26;;;;;;;9.20;2.08;;;14.80;99.90;;;;;;5064371;28;20090;-60
2022/09/24 07:53:52;;;;;;;6.43;1.83;;;14.90;99.90;;;;;;5085330;28;20395;-60
2022/09/24 07:56:18;;;;;;;14.40;3.17;;;14.90;99.90;;;;;;5089392;28;20039;-60
2022/09/24 07:58:46;;;;;;;12.10;2.28;;;14.90;99.90;;;;;;5071897;28;20555;-60
2022/09/24 08:01:12;;;;;;;7.55;1.73;;;15.00;99.90;;;;;;5090012;28;20485;-61
2022/09/24 08:03:39;;;;;;;6.78;2.22;;;15.10;99.90;;;;;;5071294;28;20044;-60
2022/09/24 08:06:05;;;;;;;8.45;1.92;;;15.10;99.90;;;;;;5089663;28;20086;-60
2022/09/24 08:08:31;;;;;;;6.30;1.90;;;15.10;99.90;;;;;;5087339;28;20076;-60
2022/09/24 08:10:57;;;;;;;6.25;1.50;;;15.10;99.90;;;;;;5089191;28;20066;-60
2022/09/24 08:13:24;;;;;;;9.02;2.30;;;15.20;99.90;;;;;;5089977;28;20109;-61
2022/09/24 08:15:57;;;;;;;6.70;1.70;;;15.10;99.90;;;;;;5084370;28;20420;-60
2022/09/24 08:18:23;;;;;;;7.45;2.40;;;15.10;99.90;;;;;;5076553;28;20036;-60
2022/09/24 08:20:48;;;;;;;8.10;2.15;;;15.10;99.90;;;;;;5058105;28;20500;-60
2022/09/24 08:23:14;;;;;;;7.80;1.90;;;15.20;99.90;;;;;;5070075;28;20063;-60
2022/09/24 08:25:40;;;;;;;11.18;2.15;;;15.20;99.90;;;;;;5059716;28;20542;-60
2022/09/24 08:28:07;;;;;;;8.48;2.17;;;15.20;99.90;;;;;;5058859;28;20032;-60
2022/09/24 08:30:34;;;;;;;10.23;2.40;;;15.20;99.90;;;;;;5065977;28;20306;-61
2022/09/24 08:33:00;;;;;;;9.93;2.45;;;15.30;99.90;;;;;;5091779;28;20543;-60
2022/09/24 08:35:26;;;;;;;5.43;1.80;;;15.20;99.90;;;;;;5070758;28;20124;-60
2022/09/24 08:37:55;;;;;;;7.75;1.70;;;15.20;99.90;;;;;;5070386;28;20109;-60
2022/09/24 08:40:24;;;;;;;6.18;1.83;;;15.20;99.90;;;;;;5072474;28;20052;-60
2022/09/24 08:43:04;;;;;;;8.35;1.92;;;15.10;99.90;;;;;;5091743;28;20032;-59
2022/09/24 08:48:25;;;;;;;11.95;2.50;;;15.10;99.90;;;;;;5092439;28;20051;-60
2022/09/24 08:50:59;;;;;;;10.48;2.85;;;15.00;99.90;;;;;;5090673;28;20385;-61
2022/09/24 08:53:47;;;;;;;11.40;2.22;;;15.00;99.90;;;;;;5074234;28;20044;-60
2022/09/24 08:56:17;;;;;;;11.32;2.08;;;15.10;99.90;;;;;;5066596;28;20055;-60
2022/09/24 08:58:45;;;;;;;10.60;2.47;;;15.10;99.90;;;;;;5071253;28;20040;-60
2022/09/24 09:01:32;;;;;;;9.57;2.00;;;15.10;99.90;;;;;;5090588;28;20040;-60
2022/09/24 09:04:03;;;;;;;10.60;2.10;;;15.20;99.90;;;;;;5061559;28;20040;-61
2022/09/24 09:06:54;;;;;;;10.05;2.22;;;15.20;99.90;;;;;;5077396;28;20082;-60
2022/09/24 09:09:32;;;;;;;7.38;2.38;;;15.20;99.90;;;;;;5077258;28;20036;-60
2022/09/24 09:12:05;;;;;;;12.88;2.95;;;15.20;99.90;;;;;;5072593;28;20055;-67
2022/09/24 09:15:02;;;;;;;9.73;2.53;;;15.20;99.90;;;;;;5076362;28;20032;-68
2022/09/24 09:17:41;;;;;;;8.38;1.77;;;15.20;99.90;;;;;;5060522;28;20054;-73
2022/09/24 09:20:30;;;;;;;11.82;2.85;;;15.10;99.90;;;;;;5093002;28;20044;-73
2022/09/24 09:23:00;;;;;;;8.40;2.40;;;15.10;99.90;;;;;;5093744;28;20131;-67
2022/09/24 09:25:28;;;;;;;11.85;3.58;;;15.00;99.90;;;;;;5071199;28;20046;-67
2022/09/24 09:28:13;;;;;;;9.73;2.97;;;15.00;99.90;;;;;;5089234;28;20035;-60
2022/09/24 09:30:58;;;;;;;;;;;15.00;99.90;;;;;;5057842;28;20127;-60
2022/09/24 09:33:42;;;;;;;11.38;2.35;;;15.00;99.90;;;;;;5057262;28;20270;-60
2022/09/24 09:36:21;;;;;;;17.25;3.60;;;14.90;99.90;;;;;;5057274;28;20036;-60
2022/09/24 09:39:11;;;;;;;13.82;2.72;;;14.90;99.90;;;;;;5057130;28;20048;-60
2022/09/24 09:42:02;;;;;;;7.78;2.13;;;15.00;99.90;;;;;;5074229;28;20036;-60
2022/09/24 09:44:30;;;;;;;10.27;2.42;;;14.90;99.90;;;;;;5086327;28;20435;-60
2022/09/24 09:47:25;;;;;;;7.45;2.05;;;14.90;99.90;;;;;;5076290;28;20048;-60
2022/09/24 09:49:55;;;;;;;11.43;2.33;;;14.90;99.90;;;;;;5052043;28;20052;-60
2022/09/24 09:52:27;;;;;;;11.48;2.50;;;14.90;99.90;;;;;;5080605;28;20039;-60
2022/09/24 09:54:53;;;;;;;7.95;1.88;;;15.00;99.90;;;;;;5046554;28;20119;-61
2022/09/24 09:57:23;;;;;;;11.85;2.05;;;15.00;99.90;;;;;;5081237;28;20125;-60
2022/09/24 09:59:50;;;;;;;11.75;2.50;;;15.00;99.90;;;;;;5048562;28;20052;-61
2022/09/24 10:02:33;;;;;;;9.25;1.60;;;15.00;99.90;;;;;;5090390;28;20043;-61
2022/09/24 10:05:05;;;;;;;7.57;2.40;;;15.00;99.90;;;;;;5056655;28;20105;-60
2022/09/24 10:07:31;;;;;;;9.23;2.75;;;15.00;99.90;;;;;;5092425;28;20797;-60
2022/09/24 10:10:18;;;;;;;10.88;1.90;;;15.00;99.90;;;;;;5066693;28;20104;-60
2022/09/24 10:12:44;;;;;;;14.23;2.83;;;15.00;99.90;;;;;;5068473;28;20048;-60
2022/09/24 10:15:23;;;;;;;7.85;2.97;;;15.00;99.90;;;;;;5064883;28;20047;-60
2022/09/24 10:17:51;;;;;;;6.40;2.10;;;15.00;99.90;;;;;;5067906;28;20058;-60
2022/09/24 10:20:26;;;;;;;9.30;2.25;;;15.00;99.90;;;;;;5069315;28;20136;-60
2022/09/24 10:22:56;;;;;;;12.40;3.33;;;14.90;99.90;;;;;;5066481;28;20057;-60
2022/09/24 10:25:25;;;;;;;8.30;2.25;;;14.90;99.90;;;;;;5066567;28;20126;-60
2022/09/24 10:27:52;;;;;;;9.35;1.80;;;14.90;99.90;;;;;;5068460;28;20048;-60
2022/09/24 10:30:33;;;;;;;7.53;2.30;;;14.90;99.90;;;;;;5068045;28;20094;-60
2022/09/24 10:33:04;;;;;;;11.18;2.15;;;14.90;99.90;;;;;;5057670;28;20052;-60
2022/09/24 10:35:34;;;;;;;10.40;2.30;;;15.00;99.90;;;;;;5074329;28;20033;-60
2022/09/24 10:38:03;;;;;;;8.02;1.83;;;15.00;99.90;;;;;;5077118;28;20116;-60
2022/09/24 10:40:37;;;;;;;10.48;2.03;;;15.00;99.90;;;;;;5084023;28;20053;-60
2022/09/24 10:43:05;;;;;;;9.17;1.70;;;15.10;99.90;;;;;;5082165;28;20049;-60
2022/09/24 10:45:41;;;;;;;10.05;2.20;;;15.20;99.90;;;;;;5067047;28;20287;-60
2022/09/24 10:48:25;;;;;;;10.43;2.10;;;15.20;99.90;;;;;;5065532;28;20044;-60
2022/09/24 10:51:10;;;;;;;11.15;2.17;;;15.20;99.90;;;;;;5060859;28;20049;-60
2022/09/24 10:53:42;;;;;;;9.93;2.55;;;15.30;99.90;;;;;;5070342;28;20052;-60
2022/09/24 10:56:36;;;;;;;8.50;2.10;;;15.40;99.90;;;;;;5061684;28;20056;-60
2022/09/24 10:59:22;;;;;;;9.27;2.75;;;15.50;99.90;;;;;;5074010;28;20408;-60
2022/09/24 11:01:55;;;;;;;14.38;1.63;;;15.50;99.90;;;;;;5071043;28;20057;-61
2022/09/24 11:04:39;;;;;;;10.27;1.83;;;15.60;99.90;;;;;;5059279;28;20498;-60
2022/09/24 11:07:38;;;;;;;7.35;1.50;;;15.60;99.90;;;;;;5106663;28;20574;-60
2022/09/24 11:10:42;;;;;;;5.05;1.70;;;15.70;99.90;;;;;;5049635;28;20124;-60
2022/09/24 11:13:22;;;;;;;5.93;1.50;;;15.70;99.90;;;;;;5049873;28;20044;-60
2022/09/24 11:16:12;;;;;;;6.95;1.15;;;15.70;99.90;;;;;;5054085;28;20162;-59
2022/09/24 11:18:53;;;;;;;6.80;2.15;;;15.70;99.90;;;;;;5063159;28;20152;-59
2022/09/24 11:21:30;;;;;;;11.75;2.10;;;15.60;99.90;;;;;;5064594;28;20566;-59
2022/09/24 11:24:15;;;;;;;6.57;1.92;;;15.60;99.90;;;;;;5027415;28;20107;-59
2022/09/24 11:26:59;;;;;;;8.00;2.00;;;15.60;99.90;;;;;;5049770;28;20053;-59
2022/09/24 11:29:49;;;;;;;6.95;2.20;;;15.60;99.90;;;;;;5031266;28;20048;-59
2022/09/24 11:32:35;;;;;;;8.57;1.80;;;15.60;99.90;;;;;;5046344;28;20498;-59
2022/09/24 11:35:34;;;;;;;7.20;1.80;;;15.60;99.90;;;;;;5047991;28;20037;-60
2022/09/24 11:38:20;;;;;;;8.95;2.30;;;15.60;99.90;;;;;;5035338;28;20099;-60
2022/09/24 11:41:04;;;;;;;15.60;2.17;;;15.60;99.90;;;;;;5031770;28;20127;-60
2022/09/24 11:43:48;;;;;;;9.68;1.88;;;15.60;99.90;;;;;;5032948;28;20038;-60
2022/09/24 11:46:47;;;;;;;8.30;1.77;;;15.60;99.90;;;;;;5041335;28;20041;-61
2022/09/24 11:49:18;;;;;;;7.97;1.67;;;15.50;99.90;;;;;;5003411;28;20434;-61
2022/09/24 11:52:17;;;;;;;6.57;1.92;;;15.60;99.90;;;;;;5035134;28;20052;-63
2022/09/24 11:55:05;;;;;;;7.18;1.85;;;15.50;99.90;;;;;;5045107;28;20041;-59
2022/09/24 11:57:37;;;;;;;7.13;1.67;;;15.50;99.90;;;;;;5032956;28;20033;-60
2022/09/24 12:00:11;;;;;;;8.55;2.33;;;15.50;99.90;;;;;;5030986;28;20041;-60
2022/09/24 12:03:07;;;;;;;9.03;2.97;;;15.50;99.90;;;;;;5032038;28;20038;-60
2022/09/24 12:05:53;;;;;;;5.07;1.33;;;15.50;99.90;;;;;;5032804;28;20371;-60
2022/09/24 12:08:28;;;;;;;5.90;1.90;;;15.60;99.90;;;;;;5030771;28;20041;-60
2022/09/24 12:11:19;;;;;;;10.60;1.73;;;15.60;99.90;;;;;;5047630;28;20129;-60
2022/09/24 12:14:11;;;;;;;11.95;2.33;;;15.60;99.90;;;;;;5032202;28;20065;-60
2022/09/24 12:16:40;;;;;;;8.23;2.17;;;15.60;99.90;;;;;;5021257;28;20053;-60
2022/09/24 12:19:26;;;;;;;10.45;1.30;;;15.60;99.90;;;;;;5047270;28;20053;-59
2022/09/24 12:21:53;;;;;;;6.20;1.58;;;15.60;99.90;;;;;;5031328;28;20041;-60
2022/09/24 12:24:25;;;;;;;9.00;1.52;;;15.60;99.90;;;;;;5033926;28;20076;-60
2022/09/24 12:26:56;;;;;;;5.68;1.70;;;15.70;99.90;;;;;;5067167;28;20048;-60
2022/09/24 12:35:18;;;;;;;6.88;1.80;;;15.80;99.90;;;;;;5051643;28;20689;-60
2022/09/24 12:37:46;;;;;;;6.10;1.58;;;15.90;99.90;;;;;;5066950;28;20045;-60
2022/09/24 12:40:14;;;;;;;6.97;1.58;;;15.90;99.90;;;;;;5052203;28;20458;-60
2022/09/24 12:42:50;;;;;;;5.55;1.95;;;15.90;99.90;;;;;;5052091;28;20036;-59
2022/09/24 12:45:21;;;;;;;8.23;1.85;;;15.90;99.90;;;;;;5067790;28;20481;-60
2022/09/24 12:48:15;;;;;;;8.90;1.92;;;16.00;99.90;;;;;;5067280;28;20041;-60
2022/09/24 12:50:40;;;;;;;5.32;1.40;;;16.00;99.90;;;;;;5050369;28;20053;-60
2022/09/24 12:53:26;;;;;;;7.63;1.52;;;16.00;99.90;;;;;;5051654;28;20393;-60
2022/09/24 12:55:58;;;;;;;9.23;1.88;;;15.90;99.90;;;;;;5066972;28;20131;-60
2022/09/24 12:58:50;;;;;;;6.63;1.48;;;16.00;99.90;;;;;;5051159;28;20084;-60
2022/09/24 13:01:19;;;;;;;5.97;1.80;;;16.00;99.90;;;;;;5051507;28;20057;-60
2022/09/24 13:03:45;;;;;;;5.63;1.80;;;16.10;99.90;;;;;;5066811;28;20072;-60
2022/09/24 13:06:30;;;;;;;6.85;1.25;;;16.20;99.90;;;;;;5051361;28;20110;-60
2022/09/24 13:08:55;;;;;;;;;;;16.20;99.90;;;;;;5067165;28;20155;-60
2022/09/24 13:11:36;;;;;;;5.00;1.38;;;16.20;99.90;;;;;;5050994;28;20024;-60
2022/09/24 13:14:20;;;;;;;8.77;1.52;;;16.20;99.90;;;;;;5067017;28;20053;-60
2022/09/24 13:16:49;;;;;;;5.60;1.35;;;16.40;99.90;;;;;;5067163;28;20132;-60
2022/09/24 13:19:37;;;;;;;6.50;1.58;;;16.60;99.90;;;;;;5066379;28;20048;-60